Terminal Aerodrome Forecast
Issued by NWS

Home | Current Version | Previous Version | Text Only | Print | Product List | Glossary On
Versions: 1 2 3 4 5 6 7 8 9 10 11 12 13 14
000
FTUS41 KAKQ 281120
TAFPHF
TAF
KPHF 281120Z 2812/2912 VRB06KT P6SM SKC
     FM282300 12007KT P6SM SCT100 BKN250
     FM290300 12005KT P6SM SCT012 BKN100 OVC200
     FM290600 11003KT 2SM BR VCSH BKN005 BKN012 OVC100=

USA.gov is the U.S. government's official web portal to all federal, state and local government web resources and services.